sensor_id;sensor_type;location;lat;lon;timestamp;pressure;altitude;pressure_sealevel;temperature;humidity
3960;BME280;1994;48.640;8.894;2022-08-19T00:01:57;95786.59;;;21.56;70.40
3960;BME280;1994;48.640;8.894;2022-08-19T00:04:31;95787.06;;;21.58;70.26
3960;BME280;1994;48.640;8.894;2022-08-19T00:06:59;95787.84;;;21.58;70.54
3960;BME280;1994;48.640;8.894;2022-08-19T00:09:26;95782.56;;;21.58;70.44
3960;BME280;1994;48.640;8.894;2022-08-19T00:11:54;95787.69;;;21.55;70.72
3960;BME280;1994;48.640;8.894;2022-08-19T00:14:22;95787.69;;;21.55;70.73
3960;BME280;1994;48.640;8.894;2022-08-19T00:16:50;95783.50;;;21.54;70.75
3960;BME280;1994;48.640;8.894;2022-08-19T00:19:20;95792.19;;;21.54;70.56
3960;BME280;1994;48.640;8.894;2022-08-19T00:21:46;95790.94;;;21.52;70.43
3960;BME280;1994;48.640;8.894;2022-08-19T00:24:14;95783.66;;;21.49;71.26
3960;BME280;1994;48.640;8.894;2022-08-19T00:26:42;95784.25;;;21.46;70.58
3960;BME280;1994;48.640;8.894;2022-08-19T00:29:10;95777.44;;;21.45;70.98
3960;BME280;1994;48.640;8.894;2022-08-19T00:31:37;95775.28;;;21.38;71.38
3960;BME280;1994;48.640;8.894;2022-08-19T00:34:03;95773.91;;;21.41;71.17
3960;BME280;1994;48.640;8.894;2022-08-19T00:36:29;95761.31;;;21.38;71.88
3960;BME280;1994;48.640;8.894;2022-08-19T00:38:55;95756.50;;;21.40;71.58
3960;BME280;1994;48.640;8.894;2022-08-19T00:41:26;95754.22;;;21.47;71.57
3960;BME280;1994;48.640;8.894;2022-08-19T00:44:24;95764.75;;;21.47;71.85
3960;BME280;1994;48.640;8.894;2022-08-19T00:46:56;95771.06;;;21.46;73.66
3960;BME280;1994;48.640;8.894;2022-08-19T00:49:51;95771.88;;;21.38;74.51
3960;BME280;1994;48.640;8.894;2022-08-19T00:52:36;95775.28;;;21.30;74.94
3960;BME280;1994;48.640;8.894;2022-08-19T00:55:07;95778.81;;;21.25;74.85
3960;BME280;1994;48.640;8.894;2022-08-19T00:57:41;95776.47;;;21.24;74.72
3960;BME280;1994;48.640;8.894;2022-08-19T01:00:14;95783.94;;;21.22;74.94
3960;BME280;1994;48.640;8.894;2022-08-19T01:02:42;95780.84;;;21.20;74.58
3960;BME280;1994;48.640;8.894;2022-08-19T01:05:16;95779.28;;;21.19;74.71
3960;BME280;1994;48.640;8.894;2022-08-19T01:07:44;95778.81;;;21.17;74.50
3960;BME280;1994;48.640;8.894;2022-08-19T01:10:14;95770.91;;;21.17;74.20
3960;BME280;1994;48.640;8.894;2022-08-19T01:12:41;95776.81;;;21.14;74.46
3960;BME280;1994;48.640;8.894;2022-08-19T01:15:10;95778.81;;;21.17;74.92
3960;BME280;1994;48.640;8.894;2022-08-19T01:17:42;95774.63;;;21.16;75.41
3960;BME280;1994;48.640;8.894;2022-08-19T01:20:18;95769.97;;;21.13;74.85
3960;BME280;1994;48.640;8.894;2022-08-19T01:22:49;95766.09;;;21.10;74.80
3960;BME280;1994;48.640;8.894;2022-08-19T01:25:20;95773.38;;;21.05;75.25
3960;BME280;1994;48.640;8.894;2022-08-19T01:27:49;95770.59;;;21.10;75.00
3960;BME280;1994;48.640;8.894;2022-08-19T01:30:23;95770.59;;;21.10;75.39
3960;BME280;1994;48.640;8.894;2022-08-19T01:32:54;95765.31;;;21.10;74.68
3960;BME280;1994;48.640;8.894;2022-08-19T01:35:23;95766.06;;;21.02;75.64
3960;BME280;1994;48.640;8.894;2022-08-19T01:37:58;95763.91;;;21.04;75.29
3960;BME280;1994;48.640;8.894;2022-08-19T01:40:29;95765.63;;;21.00;75.43
3960;BME280;1994;48.640;8.894;2022-08-19T01:43:00;95759.88;;;20.98;75.56
3960;BME280;1994;48.640;8.894;2022-08-19T01:45:30;95764.22;;;20.94;76.25
3960;BME280;1994;48.640;8.894;2022-08-19T01:48:00;95753.69;;;20.94;76.57
3960;BME280;1994;48.640;8.894;2022-08-19T01:50:26;95753.22;;;20.92;77.23
3960;BME280;1994;48.640;8.894;2022-08-19T01:52:53;95754.22;;;20.82;77.04
3960;BME280;1994;48.640;8.894;2022-08-19T01:55:21;95750.69;;;20.87;76.94
3960;BME280;1994;48.640;8.894;2022-08-19T01:57:56;95749.75;;;20.83;77.80
3960;BME280;1994;48.640;8.894;2022-08-19T02:00:30;95755.31;;;20.81;78.92
3960;BME280;1994;48.640;8.894;2022-08-19T02:03:02;95765.03;;;20.72;78.58
3960;BME280;1994;48.640;8.894;2022-08-19T02:05:28;95770.00;;;20.74;79.44
3960;BME280;1994;48.640;8.894;2022-08-19T02:07:56;95768.91;;;20.75;80.44
3960;BME280;1994;48.640;8.894;2022-08-19T02:10:22;95763.31;;;20.68;79.74
3960;BME280;1994;48.640;8.894;2022-08-19T02:12:51;95764.25;;;20.63;79.44
3960;BME280;1994;48.640;8.894;2022-08-19T02:15:19;95763.59;;;20.58;79.76
3960;BME280;1994;48.640;8.894;2022-08-19T02:17:45;95764.97;;;20.55;79.93
3960;BME280;1994;48.640;8.894;2022-08-19T02:20:12;95758.66;;;20.56;80.40
3960;BME280;1994;48.640;8.894;2022-08-19T02:22:40;95753.69;;;20.55;80.63
3960;BME280;1994;48.640;8.894;2022-08-19T02:25:10;95752.16;;;20.54;80.30
3960;BME280;1994;48.640;8.894;2022-08-19T02:27:40;95757.09;;;20.55;80.43
3960;BME280;1994;48.640;8.894;2022-08-19T02:30:14;95753.19;;;20.53;79.82
3960;BME280;1994;48.640;8.894;2022-08-19T02:32:41;95752.44;;;20.52;80.48
3960;BME280;1994;48.640;8.894;2022-08-19T02:35:08;95750.09;;;20.51;80.72
3960;BME280;1994;48.640;8.894;2022-08-19T02:37:34;95748.69;;;20.45;80.89
3960;BME280;1994;48.640;8.894;2022-08-19T02:40:19;95741.41;;;20.42;81.26
3960;BME280;1994;48.640;8.894;2022-08-19T02:42:45;95743.28;;;20.41;80.95
3960;BME280;1994;48.640;8.894;2022-08-19T02:45:14;95737.22;;;20.41;80.57
3960;BME280;1994;48.640;8.894;2022-08-19T02:47:40;95734.00;;;20.44;80.52
3960;BME280;1994;48.640;8.894;2022-08-19T02:50:07;95735.09;;;20.43;80.58
3960;BME280;1994;48.640;8.894;2022-08-19T02:52:34;95749.91;;;20.39;80.10
3960;BME280;1994;48.640;8.894;2022-08-19T02:55:00;95754.56;;;20.42;80.33
3960;BME280;1994;48.640;8.894;2022-08-19T02:57:26;95759.22;;;20.45;80.60
3960;BME280;1994;48.640;8.894;2022-08-19T02:59:52;95756.88;;;20.43;80.12
3960;BME280;1994;48.640;8.894;2022-08-19T03:02:19;95763.53;;;20.41;79.79
3960;BME280;1994;48.640;8.894;2022-08-19T03:04:45;95753.94;;;20.36;79.99
3960;BME280;1994;48.640;8.894;2022-08-19T03:07:14;95751.47;;;20.40;79.88
3960;BME280;1994;48.640;8.894;2022-08-19T03:09:44;95751.47;;;20.40;80.13
3960;BME280;1994;48.640;8.894;2022-08-19T03:12:10;95749.91;;;20.39;79.94
3960;BME280;1994;48.640;8.894;2022-08-19T03:14:36;95758.25;;;20.41;79.56
3960;BME280;1994;48.640;8.894;2022-08-19T03:17:03;95754.56;;;20.42;80.00
3960;BME280;1994;48.640;8.894;2022-08-19T03:19:33;95756.28;;;20.46;80.34
3960;BME280;1994;48.640;8.894;2022-08-19T03:22:02;95760.59;;;20.42;79.56
3960;BME280;1994;48.640;8.894;2022-08-19T03:24:29;95753.00;;;20.41;79.68
3960;BME280;1994;48.640;8.894;2022-08-19T03:26:56;95750.06;;;20.42;79.79
3960;BME280;1994;48.640;8.894;2022-08-19T03:29:24;95745.94;;;20.50;79.08
3960;BME280;1994;48.640;8.894;2022-08-19T03:31:52;95744.38;;;20.49;79.04
3960;BME280;1994;48.640;8.894;2022-08-19T03:34:25;95736.34;;;20.54;78.90
3960;BME280;1994;48.640;8.894;2022-08-19T03:36:53;95737.91;;;20.55;78.77
3960;BME280;1994;48.640;8.894;2022-08-19T03:39:23;95748.09;;;20.48;78.95
3960;BME280;1994;48.640;8.894;2022-08-19T03:41:54;95745.78;;;20.55;79.48
3960;BME280;1994;48.640;8.894;2022-08-19T03:44:25;95737.28;;;20.58;78.75
3960;BME280;1994;48.640;8.894;2022-08-19T03:46:56;95732.63;;;20.55;78.74
3960;BME280;1994;48.640;8.894;2022-08-19T03:49:27;95732.31;;;20.48;79.96
3960;BME280;1994;48.640;8.894;2022-08-19T03:51:55;95738.44;;;20.35;79.91
3960;BME280;1994;48.640;8.894;2022-08-19T03:54:24;95750.66;;;20.39;79.55
3960;BME280;1994;48.640;8.894;2022-08-19T03:56:52;95748.69;;;20.45;79.87
3960;BME280;1994;48.640;8.894;2022-08-19T03:59:45;95757.69;;;20.44;79.89
3960;BME280;1994;48.640;8.894;2022-08-19T04:02:12;95766.00;;;20.37;79.76
3960;BME280;1994;48.640;8.894;2022-08-19T04:04:41;95769.53;;;20.33;79.88
3960;BME280;1994;48.640;8.894;2022-08-19T04:07:09;95768.47;;;20.34;79.81
3960;BME280;1994;48.640;8.894;2022-08-19T04:09:36;95772.16;;;20.33;79.93
3960;BME280;1994;48.640;8.894;2022-08-19T04:12:08;95761.28;;;20.26;80.38
3960;BME280;1994;48.640;8.894;2022-08-19T04:14:37;95763.78;;;20.31;80.17
3960;BME280;1994;48.640;8.894;2022-08-19T04:17:03;95763.97;;;20.34;80.25
3960;BME280;1994;48.640;8.894;2022-08-19T04:19:34;95761.47;;;20.29;80.40
3960;BME280;1994;48.640;8.894;2022-08-19T04:22:00;95773.50;;;20.22;80.79
3960;BME280;1994;48.640;8.894;2022-08-19T04:24:27;95770.09;;;20.21;80.66
3960;BME280;1994;48.640;8.894;2022-08-19T04:26:53;95773.97;;;20.24;80.62
3960;BME280;1994;48.640;8.894;2022-08-19T04:29:22;95772.09;;;20.16;80.74
3960;BME280;1994;48.640;8.894;2022-08-19T04:31:54;95773.00;;;20.20;80.72
3960;BME280;1994;48.640;8.894;2022-08-19T04:34:22;95766.22;;;20.19;80.81
3960;BME280;1994;48.640;8.894;2022-08-19T04:36:51;95766.84;;;20.16;81.11
3960;BME280;1994;48.640;8.894;2022-08-19T04:39:22;95763.44;;;20.24;81.14
3960;BME280;1994;48.640;8.894;2022-08-19T04:41:48;95762.50;;;20.20;81.13
3960;BME280;1994;48.640;8.894;2022-08-19T04:44:34;95767.59;;;20.16;80.80
3960;BME280;1994;48.640;8.894;2022-08-19T04:47:03;95773.97;;;20.24;80.82
3960;BME280;1994;48.640;8.894;2022-08-19T04:49:31;95767.63;;;20.25;80.29
3960;BME280;1994;48.640;8.894;2022-08-19T04:51:59;95768.13;;;20.27;80.65
3960;BME280;1994;48.640;8.894;2022-08-19T04:54:25;95768.13;;;20.27;81.12
3960;BME280;1994;48.640;8.894;2022-08-19T04:56:52;95774.59;;;20.21;80.66
3960;BME280;1994;48.640;8.894;2022-08-19T04:59:19;95771.81;;;20.26;80.87
3960;BME280;1994;48.640;8.894;2022-08-19T05:01:46;95773.09;;;20.37;79.96
3960;BME280;1994;48.640;8.894;2022-08-19T05:04:18;95777.91;;;20.35;79.75
3960;BME280;1994;48.640;8.894;2022-08-19T05:06:48;95786.25;;;20.37;80.47
3960;BME280;1994;48.640;8.894;2022-08-19T05:09:15;95788.53;;;20.30;80.34
3960;BME280;1994;48.640;8.894;2022-08-19T05:11:41;95791.06;;;20.35;80.13
3960;BME280;1994;48.640;8.894;2022-08-19T05:14:08;95798.81;;;20.40;80.32
3960;BME280;1994;48.640;8.894;2022-08-19T05:16:35;95804.25;;;20.43;80.07
3960;BME280;1994;48.640;8.894;2022-08-19T05:19:01;95805.78;;;20.44;79.56
3960;BME280;1994;48.640;8.894;2022-08-19T05:21:45;95813.38;;;20.46;79.76
3960;BME280;1994;48.640;8.894;2022-08-19T05:24:30;95815.56;;;20.44;79.23
3960;BME280;1994;48.640;8.894;2022-08-19T05:27:00;95830.13;;;20.50;79.56
3960;BME280;1994;48.640;8.894;2022-08-19T05:29:31;95833.22;;;20.52;78.93
3960;BME280;1994;48.640;8.894;2022-08-19T05:31:57;95840.66;;;20.50;78.90
3960;BME280;1994;48.640;8.894;2022-08-19T05:34:24;95845.59;;;20.43;78.80
3960;BME280;1994;48.640;8.894;2022-08-19T05:36:59;95856.63;;;20.53;78.38
3960;BME280;1994;48.640;8.894;2022-08-19T05:39:29;95861.09;;;20.53;78.43
3960;BME280;1994;48.640;8.894;2022-08-19T05:42:07;95864.34;;;20.50;79.06
3960;BME280;1994;48.640;8.894;2022-08-19T05:44:36;95859.53;;;20.52;79.05
3960;BME280;1994;48.640;8.894;2022-08-19T05:47:05;95866.34;;;20.53;79.05
3960;BME280;1994;48.640;8.894;2022-08-19T05:49:32;95865.75;;;20.56;78.37
3960;BME280;1994;48.640;8.894;2022-08-19T05:52:01;95862.19;;;20.52;78.93
3960;BME280;1994;48.640;8.894;2022-08-19T05:54:27;95862.66;;;20.54;78.71
3960;BME280;1994;48.640;8.894;2022-08-19T05:56:53;95855.97;;;20.48;78.69
3960;BME280;1994;48.640;8.894;2022-08-19T05:59:22;95856.44;;;20.50;78.26
3960;BME280;1994;48.640;8.894;2022-08-19T06:01:51;95856.91;;;20.52;78.28
3960;BME280;1994;48.640;8.894;2022-08-19T06:04:19;95844.88;;;20.59;77.44
3960;BME280;1994;48.640;8.894;2022-08-19T06:06:47;95853.06;;;20.58;77.67
3960;BME280;1994;48.640;8.894;2022-08-19T06:09:16;95856.66;;;20.62;77.50
3960;BME280;1994;48.640;8.894;2022-08-19T06:11:48;95847.22;;;20.61;77.81
3960;BME280;1994;48.640;8.894;2022-08-19T06:14:18;95847.97;;;20.61;78.02
3960;BME280;1994;48.640;8.894;2022-08-19T06:16:45;95858.50;;;20.61;77.71
3960;BME280;1994;48.640;8.894;2022-08-19T06:19:16;95859.75;;;20.64;77.35
3960;BME280;1994;48.640;8.894;2022-08-19T06:21:45;95857.75;;;20.61;77.61
3960;BME280;1994;48.640;8.894;2022-08-19T06:24:15;95853.25;;;20.61;77.52
3960;BME280;1994;48.640;8.894;2022-08-19T06:26:45;95853.84;;;20.58;77.63
3960;BME280;1994;48.640;8.894;2022-08-19T06:29:15;95864.09;;;20.60;77.82
3960;BME280;1994;48.640;8.894;2022-08-19T06:31:45;95858.34;;;20.58;78.13
3960;BME280;1994;48.640;8.894;2022-08-19T06:34:11;95842.28;;;20.68;77.42
3960;BME280;1994;48.640;8.894;2022-08-19T06:36:43;95841.53;;;20.67;77.22
3960;BME280;1994;48.640;8.894;2022-08-19T06:39:15;95844.78;;;20.73;77.37
3960;BME280;1994;48.640;8.894;2022-08-19T06:41:45;95849.13;;;20.77;77.21
3960;BME280;1994;48.640;8.894;2022-08-19T06:44:28;95861.69;;;20.80;76.89
3960;BME280;1994;48.640;8.894;2022-08-19T06:46:55;95859.38;;;20.79;77.08
3960;BME280;1994;48.640;8.894;2022-08-19T06:49:24;95863.25;;;20.81;76.87
3960;BME280;1994;48.640;8.894;2022-08-19T06:51:57;95854.44;;;20.86;76.85
3960;BME280;1994;48.640;8.894;2022-08-19T06:54:24;95859.53;;;20.82;76.44
3960;BME280;1994;48.640;8.894;2022-08-19T06:56:51;95853.28;;;20.92;76.50
3960;BME280;1994;48.640;8.894;2022-08-19T06:59:23;95857.31;;;20.98;76.40
3960;BME280;1994;48.640;8.894;2022-08-19T07:01:55;95851.25;;;20.97;76.60
3960;BME280;1994;48.640;8.894;2022-08-19T07:04:32;95848.97;;;21.04;76.23
3960;BME280;1994;48.640;8.894;2022-08-19T07:07:08;95861.81;;;21.06;76.22
3960;BME280;1994;48.640;8.894;2022-08-19T07:09:36;95863.50;;;21.02;76.62
3960;BME280;1994;48.640;8.894;2022-08-19T07:12:06;95866.00;;;21.07;76.00
3960;BME280;1994;48.640;8.894;2022-08-19T07:14:33;95875.94;;;21.10;75.99
3960;BME280;1994;48.640;8.894;2022-08-19T07:17:07;95873.59;;;21.08;76.36
3960;BME280;1994;48.640;8.894;2022-08-19T07:19:33;95875.50;;;21.08;75.83
3960;BME280;1994;48.640;8.894;2022-08-19T07:22:05;95870.84;;;21.13;75.33
3960;BME280;1994;48.640;8.894;2022-08-19T07:24:38;95881.69;;;21.12;75.59
3960;BME280;1994;48.640;8.894;2022-08-19T07:27:06;95877.81;;;21.18;75.33
3960;BME280;1994;48.640;8.894;2022-08-19T07:29:34;95882.94;;;21.23;75.10
3960;BME280;1994;48.640;8.894;2022-08-19T07:32:03;95884.03;;;21.22;74.98
3960;BME280;1994;48.640;8.894;2022-08-19T07:34:30;95878.16;;;21.25;75.51
3960;BME280;1994;48.640;8.894;2022-08-19T07:36:56;95880.03;;;21.33;74.61
3960;BME280;1994;48.640;8.894;2022-08-19T07:39:29;95872.59;;;21.35;74.73
3960;BME280;1994;48.640;8.894;2022-08-19T07:41:57;95885.47;;;21.36;74.29
3960;BME280;1994;48.640;8.894;2022-08-19T07:44:24;95882.25;;;21.48;74.23
3960;BME280;1994;48.640;8.894;2022-08-19T07:46:53;95880.56;;;21.52;74.14
3960;BME280;1994;48.640;8.894;2022-08-19T07:49:20;95874.81;;;21.50;73.99
3960;BME280;1994;48.640;8.894;2022-08-19T07:51:50;95878.25;;;21.59;73.84
3960;BME280;1994;48.640;8.894;2022-08-19T07:54:18;95879.47;;;21.53;74.42
3960;BME280;1994;48.640;8.894;2022-08-19T07:56:45;95879.63;;;21.56;74.01
3960;BME280;1994;48.640;8.894;2022-08-19T07:59:11;95880.88;;;21.59;74.37
3960;BME280;1994;48.640;8.894;2022-08-19T08:01:38;95875.63;;;21.67;73.61
3960;BME280;1994;48.640;8.894;2022-08-19T08:04:07;95875.19;;;21.74;74.16
3960;BME280;1994;48.640;8.894;2022-08-19T08:06:53;95874.88;;;21.84;73.28
3960;BME280;1994;48.640;8.894;2022-08-19T08:09:40;95869.94;;;21.91;72.81
3960;BME280;1994;48.640;8.894;2022-08-19T08:12:32;95868.84;;;22.00;73.14
3960;BME280;1994;48.640;8.894;2022-08-19T08:15:03;95870.84;;;22.12;72.22
3960;BME280;1994;48.640;8.894;2022-08-19T08:17:30;95875.34;;;22.11;72.25
3960;BME280;1994;48.640;8.894;2022-08-19T08:19:56;95885.09;;;22.11;72.62
3960;BME280;1994;48.640;8.894;2022-08-19T08:22:24;95887.59;;;22.16;72.64
3960;BME280;1994;48.640;8.894;2022-08-19T08:25:13;95888.53;;;22.20;72.04
3960;BME280;1994;48.640;8.894;2022-08-19T08:27:44;95880.16;;;22.18;72.12
3960;BME280;1994;48.640;8.894;2022-08-19T08:30:31;95881.41;;;22.12;72.24
3960;BME280;1994;48.640;8.894;2022-08-19T08:33:05;95885.59;;;22.13;72.44
3960;BME280;1994;48.640;8.894;2022-08-19T08:35:30;95886.03;;;22.15;72.36
3960;BME280;1994;48.640;8.894;2022-08-19T08:37:56;95888.22;;;22.21;71.79
3960;BME280;1994;48.640;8.894;2022-08-19T08:40:28;95888.69;;;22.15;72.72
3960;BME280;1994;48.640;8.894;2022-08-19T08:43:29;95888.53;;;22.20;72.00
3960;BME280;1994;48.640;8.894;2022-08-19T08:46:05;95890.41;;;22.28;72.21
3960;BME280;1994;48.640;8.894;2022-08-19T08:49:04;95892.09;;;22.32;71.50
3960;BME280;1994;48.640;8.894;2022-08-19T08:51:42;95882.91;;;22.38;72.53
3960;BME280;1994;48.640;8.894;2022-08-19T08:54:12;95892.25;;;22.36;72.13
3960;BME280;1994;48.640;8.894;2022-08-19T08:56:41;95893.78;;;22.37;71.40
3960;BME280;1994;48.640;8.894;2022-08-19T08:59:24;95892.56;;;22.26;72.06
3960;BME280;1994;48.640;8.894;2022-08-19T09:01:51;95891.94;;;22.29;71.93
3960;BME280;1994;48.640;8.894;2022-08-19T09:04:20;95887.91;;;22.23;72.25
3960;BME280;1994;48.640;8.894;2022-08-19T09:10:46;95899.09;;;22.20;71.99
3960;BME280;1994;48.640;8.894;2022-08-19T09:16:12;95906.53;;;22.18;72.27
3960;BME280;1994;48.640;8.894;2022-08-19T09:18:52;95902.34;;;22.08;73.08
3960;BME280;1994;48.640;8.894;2022-08-19T09:21:21;95906.41;;;22.14;73.19
3960;BME280;1994;48.640;8.894;2022-08-19T09:23:48;95910.88;;;22.14;72.76
3960;BME280;1994;48.640;8.894;2022-08-19T09:26:18;95910.88;;;22.14;72.39
3960;BME280;1994;48.640;8.894;2022-08-19T09:28:47;95911.81;;;22.18;72.51
3960;BME280;1994;48.640;8.894;2022-08-19T09:31:19;95905.47;;;22.10;73.06
3960;BME280;1994;48.640;8.894;2022-08-19T09:33:49;95902.50;;;22.12;72.22
3960;BME280;1994;48.640;8.894;2022-08-19T09:36:18;95911.66;;;22.14;71.93
3960;BME280;1994;48.640;8.894;2022-08-19T09:38:44;95914.13;;;22.19;71.59
3960;BME280;1994;48.640;8.894;2022-08-19T09:41:20;95912.44;;;22.15;71.89
3960;BME280;1994;48.640;8.894;2022-08-19T09:43:50;95909.94;;;22.27;71.71
3960;BME280;1994;48.640;8.894;2022-08-19T09:46:23;95920.03;;;22.25;71.34
3960;BME280;1994;48.640;8.894;2022-08-19T09:48:50;95922.69;;;22.25;71.46
3960;BME280;1994;48.640;8.894;2022-08-19T09:51:21;95925.00;;;22.35;71.32
3960;BME280;1994;48.640;8.894;2022-08-19T09:53:51;95925.47;;;22.37;70.47
3960;BME280;1994;48.640;8.894;2022-08-19T09:56:21;95927.78;;;22.38;70.54
3960;BME280;1994;48.640;8.894;2022-08-19T09:58:48;95927.63;;;22.35;70.85
3960;BME280;1994;48.640;8.894;2022-08-19T10:01:28;95922.06;;;22.28;71.45
3960;BME280;1994;48.640;8.894;2022-08-19T10:03:57;95933.06;;;22.30;70.95
3960;BME280;1994;48.640;8.894;2022-08-19T10:06:26;95928.25;;;22.32;71.11
3960;BME280;1994;48.640;8.894;2022-08-19T10:08:57;95934.16;;;22.29;70.24
3960;BME280;1994;48.640;8.894;2022-08-19T10:11:23;95936.16;;;22.32;70.77
3960;BME280;1994;48.640;8.894;2022-08-19T10:13:52;95938.34;;;22.30;71.25
3960;BME280;1994;48.640;8.894;2022-08-19T10:16:24;95935.06;;;22.33;70.49
3960;BME280;1994;48.640;8.894;2022-08-19T10:18:52;95933.53;;;22.32;71.11
3960;BME280;1994;48.640;8.894;2022-08-19T10:21:27;95936.66;;;22.34;70.67
3960;BME280;1994;48.640;8.894;2022-08-19T10:23:58;95937.91;;;22.45;69.99
3960;BME280;1994;48.640;8.894;2022-08-19T10:26:28;95937.28;;;22.48;70.45
3960;BME280;1994;48.640;8.894;2022-08-19T10:28:56;95941.47;;;22.49;70.49
3960;BME280;1994;48.640;8.894;2022-08-19T10:31:26;95940.06;;;22.60;69.32
3960;BME280;1994;48.640;8.894;2022-08-19T10:33:53;95929.84;;;22.50;70.16
3960;BME280;1994;48.640;8.894;2022-08-19T10:36:27;95939.44;;;22.63;70.03
3960;BME280;1994;48.640;8.894;2022-08-19T10:38:56;95935.38;;;22.74;68.53
3960;BME280;1994;48.640;8.894;2022-08-19T10:41:33;95925.91;;;22.73;67.86
3960;BME280;1994;48.640;8.894;2022-08-19T10:44:10;95919.81;;;22.81;68.61
3960;BME280;1994;48.640;8.894;2022-08-19T10:46:40;95924.16;;;22.94;68.59
3960;BME280;1994;48.640;8.894;2022-08-19T10:49:09;95924.44;;;23.01;67.53
3960;BME280;1994;48.640;8.894;2022-08-19T10:51:38;95923.16;;;23.07;67.63
3960;BME280;1994;48.640;8.894;2022-08-19T10:54:24;95927.03;;;23.09;66.42
3960;BME280;1994;48.640;8.894;2022-08-19T10:57:10;95926.25;;;23.09;66.11
3960;BME280;1994;48.640;8.894;2022-08-19T10:59:36;95921.75;;;23.18;65.57
3960;BME280;1994;48.640;8.894;2022-08-19T11:02:05;95916.00;;;23.16;64.52
3960;BME280;1994;48.640;8.894;2022-08-19T11:04:36;95909.34;;;23.10;64.46
3960;BME280;1994;48.640;8.894;2022-08-19T11:07:03;95912.59;;;23.07;65.02
3960;BME280;1994;48.640;8.894;2022-08-19T11:09:30;95920.78;;;23.14;64.76
3960;BME280;1994;48.640;8.894;2022-08-19T11:11:56;95918.31;;;23.09;64.83
3960;BME280;1994;48.640;8.894;2022-08-19T11:14:23;95915.06;;;23.12;65.16
3960;BME280;1994;48.640;8.894;2022-08-19T11:16:51;95915.25;;;23.07;65.01
3960;BME280;1994;48.640;8.894;2022-08-19T11:19:21;95917.41;;;23.13;65.35
3960;BME280;1994;48.640;8.894;2022-08-19T11:21:50;95911.31;;;23.13;64.59
3960;BME280;1994;48.640;8.894;2022-08-19T11:24:21;95913.81;;;23.18;64.88
3960;BME280;1994;48.640;8.894;2022-08-19T11:26:50;95911.63;;;23.20;64.99
3960;BME280;1994;48.640;8.894;2022-08-19T11:29:19;95917.84;;;23.24;64.30
3960;BME280;1994;48.640;8.894;2022-08-19T11:31:48;95914.88;;;23.25;63.33
3960;BME280;1994;48.640;8.894;2022-08-19T11:34:22;95918.09;;;23.31;63.58
3960;BME280;1994;48.640;8.894;2022-08-19T11:36:50;95920.16;;;23.25;63.81
3960;BME280;1994;48.640;8.894;2022-08-19T11:39:19;95925.19;;;23.18;63.78
3960;BME280;1994;48.640;8.894;2022-08-19T11:41:45;95923.91;;;23.24;63.07
3960;BME280;1994;48.640;8.894;2022-08-19T11:44:11;95922.97;;;23.20;63.76
3960;BME280;1994;48.640;8.894;2022-08-19T11:46:40;95920.34;;;23.12;64.44
3960;BME280;1994;48.640;8.894;2022-08-19T11:49:09;95921.75;;;23.09;64.02
3960;BME280;1994;48.640;8.894;2022-08-19T11:51:38;95918.06;;;23.02;64.13
3960;BME280;1994;48.640;8.894;2022-08-19T11:54:09;95920.03;;;23.22;62.55
3960;BME280;1994;48.640;8.894;2022-08-19T11:56:40;95919.69;;;23.32;62.25
3960;BME280;1994;48.640;8.894;2022-08-19T11:59:07;95918.31;;;23.26;63.02
3960;BME280;1994;48.640;8.894;2022-08-19T12:01:33;95914.53;;;23.35;63.10
3960;BME280;1994;48.640;8.894;2022-08-19T12:04:00;95914.13;;;23.54;61.53
3960;BME280;1994;48.640;8.894;2022-08-19T12:06:29;95908.47;;;23.64;61.40
3960;BME280;1994;48.640;8.894;2022-08-19T12:08:58;95913.25;;;23.70;60.91
3960;BME280;1994;48.640;8.894;2022-08-19T12:11:27;95909.19;;;23.73;61.16
3960;BME280;1994;48.640;8.894;2022-08-19T12:13:53;95907.63;;;23.72;61.46
3960;BME280;1994;48.640;8.894;2022-08-19T12:16:25;95903.88;;;23.73;60.70
3960;BME280;1994;48.640;8.894;2022-08-19T12:18:52;95912.28;;;23.75;59.11
3960;BME280;1994;48.640;8.894;2022-08-19T12:21:22;95905.56;;;23.77;59.59
3960;BME280;1994;48.640;8.894;2022-08-19T12:23:51;95896.97;;;23.89;58.53
3960;BME280;1994;48.640;8.894;2022-08-19T12:26:17;95895.34;;;23.96;58.69
3960;BME280;1994;48.640;8.894;2022-08-19T12:28:44;95895.53;;;24.12;58.66
3960;BME280;1994;48.640;8.894;2022-08-19T12:31:13;95900.69;;;24.29;57.66
3960;BME280;1994;48.640;8.894;2022-08-19T12:33:41;95898.97;;;24.45;57.44
3960;BME280;1994;48.640;8.894;2022-08-19T12:36:11;95900.63;;;24.70;57.14
3960;BME280;1994;48.640;8.894;2022-08-19T12:38:39;95894.06;;;24.88;55.85
3960;BME280;1994;48.640;8.894;2022-08-19T12:41:08;95887.31;;;25.02;54.59
3960;BME280;1994;48.640;8.894;2022-08-19T12:43:35;95885.72;;;25.22;53.88
3960;BME280;1994;48.640;8.894;2022-08-19T12:46:02;95893.69;;;25.34;53.24
3960;BME280;1994;48.640;8.894;2022-08-19T12:48:30;95890.59;;;25.32;52.78
3960;BME280;1994;48.640;8.894;2022-08-19T12:50:56;95894.69;;;25.41;51.77
3960;BME280;1994;48.640;8.894;2022-08-19T12:53:23;95892.16;;;25.33;52.24
3960;BME280;1994;48.640;8.894;2022-08-19T12:55:57;95895.66;;;25.37;52.10
3960;BME280;1994;48.640;8.894;2022-08-19T12:58:26;95885.94;;;25.41;51.33
3960;BME280;1994;48.640;8.894;2022-08-19T13:00:52;95895.53;;;25.21;51.13
3960;BME280;1994;48.640;8.894;2022-08-19T13:03:18;95901.81;;;25.05;51.02
3960;BME280;1994;48.640;8.894;2022-08-19T13:05:44;95893.66;;;25.22;50.60
3960;BME280;1994;48.640;8.894;2022-08-19T13:08:10;95906.91;;;25.22;50.09
3960;BME280;1994;48.640;8.894;2022-08-19T13:10:39;95893.69;;;25.34;50.41
3960;BME280;1994;48.640;8.894;2022-08-19T13:13:08;95900.53;;;25.35;50.42
3960;BME280;1994;48.640;8.894;2022-08-19T13:15:40;95894.22;;;25.39;50.83
3960;BME280;1994;48.640;8.894;2022-08-19T13:18:08;95900.97;;;25.49;50.60
3960;BME280;1994;48.640;8.894;2022-08-19T13:20:37;95900.09;;;25.57;51.16
3960;BME280;1994;48.640;8.894;2022-08-19T13:23:07;95908.34;;;25.67;51.27
3960;BME280;1994;48.640;8.894;2022-08-19T13:25:32;95907.16;;;25.77;51.04
3960;BME280;1994;48.640;8.894;2022-08-19T13:27:59;95912.22;;;25.70;51.70
3960;BME280;1994;48.640;8.894;2022-08-19T13:30:26;95905.16;;;25.62;51.07
3960;BME280;1994;48.640;8.894;2022-08-19T13:33:10;95907.72;;;25.58;51.00
3960;BME280;1994;48.640;8.894;2022-08-19T13:35:45;95907.84;;;25.50;51.82
3960;BME280;1994;48.640;8.894;2022-08-19T13:38:13;95917.53;;;25.70;51.76
3960;BME280;1994;48.640;8.894;2022-08-19T13:40:40;95915.22;;;25.68;51.45
3960;BME280;1994;48.640;8.894;2022-08-19T13:43:08;95917.13;;;25.56;51.52
3960;BME280;1994;48.640;8.894;2022-08-19T13:45:34;95918.72;;;25.84;51.97